sensor_id;sensor_type;location;lat;lon;timestamp;P1;durP1;ratioP1;P2;durP2;ratioP2
12958;SDS011;6544;51.666;6.634;2023-06-24T00:01:30;8.63;;;7.72;;
12958;SDS011;6544;51.666;6.634;2023-06-24T00:03:58;9.15;;;8.13;;
12958;SDS011;6544;51.666;6.634;2023-06-24T00:06:25;9.77;;;7.97;;
12958;SDS011;6544;51.666;6.634;2023-06-24T00:08:52;8.68;;;7.78;;
12958;SDS011;6544;51.666;6.634;2023-06-24T00:11:25;9.02;;;7.70;;
12958;SDS011;6544;51.666;6.634;2023-06-24T00:13:54;10.35;;;7.75;;
12958;SDS011;6544;51.666;6.634;2023-06-24T00:16:21;12.10;;;7.80;;
12958;SDS011;6544;51.666;6.634;2023-06-24T00:18:52;8.25;;;7.43;;
12958;SDS011;6544;51.666;6.634;2023-06-24T00:21:19;9.57;;;7.65;;
12958;SDS011;6544;51.666;6.634;2023-06-24T00:23:47;8.68;;;7.65;;
12958;SDS011;6544;51.666;6.634;2023-06-24T00:26:15;9.43;;;7.60;;
12958;SDS011;6544;51.666;6.634;2023-06-24T00:28:42;8.60;;;7.70;;
12958;SDS011;6544;51.666;6.634;2023-06-24T00:31:10;9.23;;;7.85;;
12958;SDS011;6544;51.666;6.634;2023-06-24T00:33:37;8.23;;;7.43;;
12958;SDS011;6544;51.666;6.634;2023-06-24T00:36:04;8.43;;;7.63;;
12958;SDS011;6544;51.666;6.634;2023-06-24T00:38:33;10.05;;;8.02;;
12958;SDS011;6544;51.666;6.634;2023-06-24T00:41:00;9.93;;;7.93;;
12958;SDS011;6544;51.666;6.634;2023-06-24T00:43:27;10.82;;;7.78;;
12958;SDS011;6544;51.666;6.634;2023-06-24T00:45:55;9.50;;;7.60;;
12958;SDS011;6544;51.666;6.634;2023-06-24T00:48:24;8.77;;;7.88;;
12958;SDS011;6544;51.666;6.634;2023-06-24T00:50:51;9.90;;;7.35;;
12958;SDS011;6544;51.666;6.634;2023-06-24T00:53:18;9.77;;;7.85;;
12958;SDS011;6544;51.666;6.634;2023-06-24T00:55:46;9.13;;;7.75;;
12958;SDS011;6544;51.666;6.634;2023-06-24T00:58:13;8.40;;;7.60;;
12958;SDS011;6544;51.666;6.634;2023-06-24T01:00:42;8.48;;;7.68;;
12958;SDS011;6544;51.666;6.634;2023-06-24T01:03:11;8.63;;;7.72;;
12958;SDS011;6544;51.666;6.634;2023-06-24T01:05:40;9.02;;;7.53;;
12958;SDS011;6544;51.666;6.634;2023-06-24T01:08:08;8.75;;;7.43;;
12958;SDS011;6544;51.666;6.634;2023-06-24T01:10:40;7.80;;;7.00;;
12958;SDS011;6544;51.666;6.634;2023-06-24T01:13:08;9.38;;;7.50;;
12958;SDS011;6544;51.666;6.634;2023-06-24T01:15:34;9.13;;;7.20;;
12958;SDS011;6544;51.666;6.634;2023-06-24T01:18:03;8.10;;;7.35;;
12958;SDS011;6544;51.666;6.634;2023-06-24T01:20:38;9.43;;;6.93;;
12958;SDS011;6544;51.666;6.634;2023-06-24T01:23:24;8.18;;;7.38;;
12958;SDS011;6544;51.666;6.634;2023-06-24T01:26:32;8.20;;;7.18;;
12958;SDS011;6544;51.666;6.634;2023-06-24T01:32:18;7.40;;;6.63;;
12958;SDS011;6544;51.666;6.634;2023-06-24T01:34:52;7.70;;;6.88;;
12958;SDS011;6544;51.666;6.634;2023-06-24T01:37:25;7.75;;;6.80;;
12958;SDS011;6544;51.666;6.634;2023-06-24T01:39:56;7.20;;;6.50;;
12958;SDS011;6544;51.666;6.634;2023-06-24T01:42:34;8.10;;;7.38;;
12958;SDS011;6544;51.666;6.634;2023-06-24T01:45:04;10.57;;;7.30;;
12958;SDS011;6544;51.666;6.634;2023-06-24T01:47:34;8.05;;;6.63;;
12958;SDS011;6544;51.666;6.634;2023-06-24T01:50:04;11.75;;;7.10;;
12958;SDS011;6544;51.666;6.634;2023-06-24T01:52:35;7.85;;;6.72;;
12958;SDS011;6544;51.666;6.634;2023-06-24T01:55:04;9.10;;;6.97;;
12958;SDS011;6544;51.666;6.634;2023-06-24T01:57:34;10.25;;;6.72;;
12958;SDS011;6544;51.666;6.634;2023-06-24T02:00:02;7.47;;;6.72;;
12958;SDS011;6544;51.666;6.634;2023-06-24T02:02:32;7.82;;;7.03;;
12958;SDS011;6544;51.666;6.634;2023-06-24T02:05:02;10.95;;;7.15;;
12958;SDS011;6544;51.666;6.634;2023-06-24T02:07:32;8.40;;;7.00;;
12958;SDS011;6544;51.666;6.634;2023-06-24T02:10:00;7.25;;;6.55;;
12958;SDS011;6544;51.666;6.634;2023-06-24T02:12:29;8.02;;;6.82;;
12958;SDS011;6544;51.666;6.634;2023-06-24T02:14:57;7.70;;;6.90;;
12958;SDS011;6544;51.666;6.634;2023-06-24T02:17:25;7.70;;;6.90;;
12958;SDS011;6544;51.666;6.634;2023-06-24T02:19:56;13.00;;;7.13;;
12958;SDS011;6544;51.666;6.634;2023-06-24T02:22:24;8.00;;;6.75;;
12958;SDS011;6544;51.666;6.634;2023-06-24T02:24:51;7.55;;;6.43;;
12958;SDS011;6544;51.666;6.634;2023-06-24T02:27:19;7.65;;;6.93;;
12958;SDS011;6544;51.666;6.634;2023-06-24T02:29:46;7.80;;;6.78;;
12958;SDS011;6544;51.666;6.634;2023-06-24T02:32:14;7.80;;;6.80;;
12958;SDS011;6544;51.666;6.634;2023-06-24T02:34:41;7.95;;;6.40;;
12958;SDS011;6544;51.666;6.634;2023-06-24T02:37:09;11.07;;;7.15;;
12958;SDS011;6544;51.666;6.634;2023-06-24T02:39:36;7.65;;;6.85;;
12958;SDS011;6544;51.666;6.634;2023-06-24T02:42:09;8.60;;;7.03;;
12958;SDS011;6544;51.666;6.634;2023-06-24T02:44:36;7.78;;;6.97;;
12958;SDS011;6544;51.666;6.634;2023-06-24T02:47:04;7.43;;;6.72;;
12958;SDS011;6544;51.666;6.634;2023-06-24T02:49:33;9.13;;;6.93;;
12958;SDS011;6544;51.666;6.634;2023-06-24T02:52:01;9.07;;;7.38;;
12958;SDS011;6544;51.666;6.634;2023-06-24T02:54:29;8.45;;;7.00;;
12958;SDS011;6544;51.666;6.634;2023-06-24T02:56:57;7.30;;;6.50;;
12958;SDS011;6544;51.666;6.634;2023-06-24T02:59:25;7.80;;;7.00;;
12958;SDS011;6544;51.666;6.634;2023-06-24T03:01:52;8.02;;;7.00;;
12958;SDS011;6544;51.666;6.634;2023-06-24T03:04:20;9.40;;;7.28;;
12958;SDS011;6544;51.666;6.634;2023-06-24T03:06:47;8.00;;;7.03;;
12958;SDS011;6544;51.666;6.634;2023-06-24T03:09:16;8.05;;;6.95;;
12958;SDS011;6544;51.666;6.634;2023-06-24T03:11:44;10.35;;;7.20;;
12958;SDS011;6544;51.666;6.634;2023-06-24T03:14:11;11.45;;;7.75;;
12958;SDS011;6544;51.666;6.634;2023-06-24T03:16:39;9.57;;;7.30;;
12958;SDS011;6544;51.666;6.634;2023-06-24T03:19:06;10.82;;;7.72;;
12958;SDS011;6544;51.666;6.634;2023-06-24T03:21:33;8.70;;;7.45;;
12958;SDS011;6544;51.666;6.634;2023-06-24T03:23:59;11.40;;;7.22;;
12958;SDS011;6544;51.666;6.634;2023-06-24T03:26:31;9.50;;;7.07;;
12958;SDS011;6544;51.666;6.634;2023-06-24T03:29:00;11.57;;;7.25;;
12958;SDS011;6544;51.666;6.634;2023-06-24T03:31:27;8.85;;;7.25;;
12958;SDS011;6544;51.666;6.634;2023-06-24T03:33:54;7.60;;;6.90;;
12958;SDS011;6544;51.666;6.634;2023-06-24T03:36:21;8.73;;;7.30;;
12958;SDS011;6544;51.666;6.634;2023-06-24T03:38:49;9.77;;;7.38;;
12958;SDS011;6544;51.666;6.634;2023-06-24T03:41:16;7.60;;;6.90;;
12958;SDS011;6544;51.666;6.634;2023-06-24T03:43:43;10.65;;;7.45;;
12958;SDS011;6544;51.666;6.634;2023-06-24T03:46:11;9.32;;;7.70;;
12958;SDS011;6544;51.666;6.634;2023-06-24T03:48:38;8.73;;;7.60;;
12958;SDS011;6544;51.666;6.634;2023-06-24T03:51:05;9.65;;;7.70;;
12958;SDS011;6544;51.666;6.634;2023-06-24T03:53:32;8.82;;;7.40;;
12958;SDS011;6544;51.666;6.634;2023-06-24T03:55:59;10.13;;;7.80;;
12958;SDS011;6544;51.666;6.634;2023-06-24T03:58:26;8.75;;;7.80;;
12958;SDS011;6544;51.666;6.634;2023-06-24T04:00:53;9.35;;;7.95;;
12958;SDS011;6544;51.666;6.634;2023-06-24T04:03:23;11.15;;;7.85;;
12958;SDS011;6544;51.666;6.634;2023-06-24T04:05:52;8.88;;;7.78;;
12958;SDS011;6544;51.666;6.634;2023-06-24T04:08:20;10.60;;;7.88;;
12958;SDS011;6544;51.666;6.634;2023-06-24T04:10:47;8.82;;;7.93;;
12958;SDS011;6544;51.666;6.634;2023-06-24T04:13:14;10.35;;;8.52;;
12958;SDS011;6544;51.666;6.634;2023-06-24T04:15:41;13.50;;;9.25;;
12958;SDS011;6544;51.666;6.634;2023-06-24T04:18:08;11.18;;;9.07;;
12958;SDS011;6544;51.666;6.634;2023-06-24T04:20:36;11.05;;;8.93;;
12958;SDS011;6544;51.666;6.634;2023-06-24T04:23:03;11.75;;;9.25;;
12958;SDS011;6544;51.666;6.634;2023-06-24T04:25:32;11.10;;;8.68;;
12958;SDS011;6544;51.666;6.634;2023-06-24T04:27:59;11.65;;;9.27;;
12958;SDS011;6544;51.666;6.634;2023-06-24T04:30:26;11.25;;;9.18;;
12958;SDS011;6544;51.666;6.634;2023-06-24T04:32:53;11.30;;;9.15;;
12958;SDS011;6544;51.666;6.634;2023-06-24T04:35:20;12.52;;;8.80;;
12958;SDS011;6544;51.666;6.634;2023-06-24T04:37:48;11.57;;;9.52;;
12958;SDS011;6544;51.666;6.634;2023-06-24T04:40:16;13.50;;;9.18;;
12958;SDS011;6544;51.666;6.634;2023-06-24T04:42:44;12.23;;;9.32;;
12958;SDS011;6544;51.666;6.634;2023-06-24T04:45:10;10.23;;;9.00;;
12958;SDS011;6544;51.666;6.634;2023-06-24T04:47:37;18.30;;;9.65;;
12958;SDS011;6544;51.666;6.634;2023-06-24T04:50:05;13.13;;;9.85;;
12958;SDS011;6544;51.666;6.634;2023-06-24T04:52:34;10.70;;;8.88;;
12958;SDS011;6544;51.666;6.634;2023-06-24T04:55:03;10.75;;;9.60;;
12958;SDS011;6544;51.666;6.634;2023-06-24T04:57:31;13.85;;;10.38;;
12958;SDS011;6544;51.666;6.634;2023-06-24T04:59:59;11.93;;;9.27;;
12958;SDS011;6544;51.666;6.634;2023-06-24T05:02:26;12.70;;;9.48;;
12958;SDS011;6544;51.666;6.634;2023-06-24T05:04:53;13.57;;;9.55;;
12958;SDS011;6544;51.666;6.634;2023-06-24T05:07:20;12.73;;;9.55;;
12958;SDS011;6544;51.666;6.634;2023-06-24T05:09:47;15.00;;;10.27;;
12958;SDS011;6544;51.666;6.634;2023-06-24T05:12:17;12.93;;;10.30;;
12958;SDS011;6544;51.666;6.634;2023-06-24T05:14:44;13.18;;;9.88;;
12958;SDS011;6544;51.666;6.634;2023-06-24T05:17:16;13.13;;;10.25;;
12958;SDS011;6544;51.666;6.634;2023-06-24T05:19:43;15.77;;;9.95;;
12958;SDS011;6544;51.666;6.634;2023-06-24T05:22:10;15.20;;;9.50;;
12958;SDS011;6544;51.666;6.634;2023-06-24T05:24:37;15.80;;;10.23;;
12958;SDS011;6544;51.666;6.634;2023-06-24T05:27:04;13.52;;;9.80;;
12958;SDS011;6544;51.666;6.634;2023-06-24T05:29:33;15.38;;;10.30;;
12958;SDS011;6544;51.666;6.634;2023-06-24T05:32:00;16.48;;;10.65;;
12958;SDS011;6544;51.666;6.634;2023-06-24T05:34:28;13.02;;;9.88;;
12958;SDS011;6544;51.666;6.634;2023-06-24T05:36:55;13.15;;;10.35;;
12958;SDS011;6544;51.666;6.634;2023-06-24T05:39:22;15.98;;;10.20;;
12958;SDS011;6544;51.666;6.634;2023-06-24T05:41:50;14.90;;;9.88;;
12958;SDS011;6544;51.666;6.634;2023-06-24T05:44:17;12.65;;;10.20;;
12958;SDS011;6544;51.666;6.634;2023-06-24T05:46:45;16.20;;;10.65;;
12958;SDS011;6544;51.666;6.634;2023-06-24T05:49:12;14.30;;;10.32;;
12958;SDS011;6544;51.666;6.634;2023-06-24T05:51:39;13.70;;;10.43;;
12958;SDS011;6544;51.666;6.634;2023-06-24T05:54:06;15.32;;;11.40;;
12958;SDS011;6544;51.666;6.634;2023-06-24T05:56:33;15.27;;;10.82;;
12958;SDS011;6544;51.666;6.634;2023-06-24T05:59:01;21.25;;;11.82;;
12958;SDS011;6544;51.666;6.634;2023-06-24T06:01:28;14.00;;;10.45;;
12958;SDS011;6544;51.666;6.634;2023-06-24T06:03:56;14.52;;;11.00;;
12958;SDS011;6544;51.666;6.634;2023-06-24T06:06:23;13.90;;;10.77;;
12958;SDS011;6544;51.666;6.634;2023-06-24T06:08:50;14.77;;;11.20;;
12958;SDS011;6544;51.666;6.634;2023-06-24T06:11:17;14.65;;;11.60;;
12958;SDS011;6544;51.666;6.634;2023-06-24T06:13:44;15.80;;;11.65;;
12958;SDS011;6544;51.666;6.634;2023-06-24T06:16:11;14.43;;;11.30;;
12958;SDS011;6544;51.666;6.634;2023-06-24T06:18:37;16.60;;;11.93;;
12958;SDS011;6544;51.666;6.634;2023-06-24T06:21:06;16.45;;;11.90;;
12958;SDS011;6544;51.666;6.634;2023-06-24T06:23:33;16.23;;;11.70;;
12958;SDS011;6544;51.666;6.634;2023-06-24T06:25:59;13.30;;;11.35;;
12958;SDS011;6544;51.666;6.634;2023-06-24T06:28:26;16.52;;;11.75;;
12958;SDS011;6544;51.666;6.634;2023-06-24T06:30:54;15.90;;;12.00;;
12958;SDS011;6544;51.666;6.634;2023-06-24T06:33:22;18.60;;;12.52;;
12958;SDS011;6544;51.666;6.634;2023-06-24T06:35:49;14.15;;;12.27;;
12958;SDS011;6544;51.666;6.634;2023-06-24T06:38:17;14.20;;;12.23;;
12958;SDS011;6544;51.666;6.634;2023-06-24T06:40:44;21.05;;;13.18;;
12958;SDS011;6544;51.666;6.634;2023-06-24T06:43:11;16.60;;;13.60;;
12958;SDS011;6544;51.666;6.634;2023-06-24T06:45:37;14.68;;;12.38;;
12958;SDS011;6544;51.666;6.634;2023-06-24T06:48:05;15.13;;;12.95;;
12958;SDS011;6544;51.666;6.634;2023-06-24T06:50:33;29.48;;;15.00;;
12958;SDS011;6544;51.666;6.634;2023-06-24T06:53:00;16.92;;;15.13;;
12958;SDS011;6544;51.666;6.634;2023-06-24T06:55:29;17.98;;;15.48;;
12958;SDS011;6544;51.666;6.634;2023-06-24T06:57:56;19.33;;;16.17;;
12958;SDS011;6544;51.666;6.634;2023-06-24T07:00:23;18.33;;;15.10;;
12958;SDS011;6544;51.666;6.634;2023-06-24T07:02:50;21.90;;;15.75;;
12958;SDS011;6544;51.666;6.634;2023-06-24T07:05:17;22.50;;;15.77;;
12958;SDS011;6544;51.666;6.634;2023-06-24T07:07:44;17.70;;;14.75;;
12958;SDS011;6544;51.666;6.634;2023-06-24T07:10:11;19.02;;;16.10;;
12958;SDS011;6544;51.666;6.634;2023-06-24T07:12:39;17.63;;;15.82;;
12958;SDS011;6544;51.666;6.634;2023-06-24T07:15:06;20.65;;;16.38;;
12958;SDS011;6544;51.666;6.634;2023-06-24T07:17:34;20.48;;;16.77;;
12958;SDS011;6544;51.666;6.634;2023-06-24T07:20:01;22.65;;;16.63;;
12958;SDS011;6544;51.666;6.634;2023-06-24T07:22:28;19.15;;;16.60;;
12958;SDS011;6544;51.666;6.634;2023-06-24T07:24:55;21.80;;;16.95;;
12958;SDS011;6544;51.666;6.634;2023-06-24T07:27:22;20.55;;;16.45;;
12958;SDS011;6544;51.666;6.634;2023-06-24T07:29:51;21.35;;;17.77;;
12958;SDS011;6544;51.666;6.634;2023-06-24T07:32:18;23.05;;;17.13;;
12958;SDS011;6544;51.666;6.634;2023-06-24T07:34:44;19.13;;;16.50;;
12958;SDS011;6544;51.666;6.634;2023-06-24T07:37:11;20.90;;;16.88;;
12958;SDS011;6544;51.666;6.634;2023-06-24T07:39:38;20.77;;;16.75;;
12958;SDS011;6544;51.666;6.634;2023-06-24T07:42:05;18.98;;;16.48;;
12958;SDS011;6544;51.666;6.634;2023-06-24T07:44:33;17.52;;;15.52;;
12958;SDS011;6544;51.666;6.634;2023-06-24T07:47:03;21.55;;;16.48;;
12958;SDS011;6544;51.666;6.634;2023-06-24T07:49:31;19.10;;;16.73;;
12958;SDS011;6544;51.666;6.634;2023-06-24T07:51:58;18.10;;;16.20;;
12958;SDS011;6544;51.666;6.634;2023-06-24T07:54:25;19.02;;;15.75;;
12958;SDS011;6544;51.666;6.634;2023-06-24T07:56:51;18.88;;;16.30;;
12958;SDS011;6544;51.666;6.634;2023-06-24T07:59:18;21.80;;;16.23;;
12958;SDS011;6544;51.666;6.634;2023-06-24T08:01:45;16.83;;;14.15;;
12958;SDS011;6544;51.666;6.634;2023-06-24T08:04:14;15.98;;;14.27;;
12958;SDS011;6544;51.666;6.634;2023-06-24T08:06:41;19.27;;;15.55;;
12958;SDS011;6544;51.666;6.634;2023-06-24T08:09:08;18.55;;;15.60;;
12958;SDS011;6544;51.666;6.634;2023-06-24T08:11:35;16.10;;;13.35;;
12958;SDS011;6544;51.666;6.634;2023-06-24T08:14:02;17.15;;;14.48;;
12958;SDS011;6544;51.666;6.634;2023-06-24T08:16:29;19.15;;;13.57;;
12958;SDS011;6544;51.666;6.634;2023-06-24T08:18:56;15.93;;;12.48;;
12958;SDS011;6544;51.666;6.634;2023-06-24T08:21:24;14.25;;;12.02;;
12958;SDS011;6544;51.666;6.634;2023-06-24T08:23:51;14.55;;;11.90;;
12958;SDS011;6544;51.666;6.634;2023-06-24T08:26:19;12.40;;;10.60;;
12958;SDS011;6544;51.666;6.634;2023-06-24T08:28:46;14.30;;;11.57;;
12958;SDS011;6544;51.666;6.634;2023-06-24T08:31:13;12.05;;;10.25;;
12958;SDS011;6544;51.666;6.634;2023-06-24T08:33:43;13.02;;;11.43;;
12958;SDS011;6544;51.666;6.634;2023-06-24T08:36:11;11.90;;;9.98;;
12958;SDS011;6544;51.666;6.634;2023-06-24T08:38:39;15.20;;;11.38;;
12958;SDS011;6544;51.666;6.634;2023-06-24T08:41:07;14.25;;;10.25;;
12958;SDS011;6544;51.666;6.634;2023-06-24T08:43:34;23.13;;;12.20;;
12958;SDS011;6544;51.666;6.634;2023-06-24T08:46:02;13.50;;;10.88;;
12958;SDS011;6544;51.666;6.634;2023-06-24T08:48:29;14.30;;;10.55;;
12958;SDS011;6544;51.666;6.634;2023-06-24T08:50:57;13.32;;;9.63;;
12958;SDS011;6544;51.666;6.634;2023-06-24T08:53:26;10.55;;;9.02;;
12958;SDS011;6544;51.666;6.634;2023-06-24T08:55:55;12.07;;;8.70;;
12958;SDS011;6544;51.666;6.634;2023-06-24T08:58:23;12.57;;;8.73;;
12958;SDS011;6544;51.666;6.634;2023-06-24T09:00:50;9.68;;;7.97;;
12958;SDS011;6544;51.666;6.634;2023-06-24T09:03:17;11.07;;;9.18;;
12958;SDS011;6544;51.666;6.634;2023-06-24T09:05:44;11.10;;;7.47;;
12958;SDS011;6544;51.666;6.634;2023-06-24T09:08:13;11.75;;;8.52;;
12958;SDS011;6544;51.666;6.634;2023-06-24T09:10:40;9.00;;;7.55;;
12958;SDS011;6544;51.666;6.634;2023-06-24T09:13:09;10.27;;;6.28;;
12958;SDS011;6544;51.666;6.634;2023-06-24T09:15:36;9.05;;;7.47;;
12958;SDS011;6544;51.666;6.634;2023-06-24T09:18:04;8.48;;;6.32;;
12958;SDS011;6544;51.666;6.634;2023-06-24T09:20:32;9.77;;;6.68;;
12958;SDS011;6544;51.666;6.634;2023-06-24T09:23:04;8.25;;;6.75;;
12958;SDS011;6544;51.666;6.634;2023-06-24T09:25:31;10.35;;;7.38;;
12958;SDS011;6544;51.666;6.634;2023-06-24T09:27:58;9.85;;;6.80;;
12958;SDS011;6544;51.666;6.634;2023-06-24T09:30:28;8.75;;;6.40;;
12958;SDS011;6544;51.666;6.634;2023-06-24T09:32:55;10.25;;;6.78;;
12958;SDS011;6544;51.666;6.634;2023-06-24T09:35:23;11.02;;;8.10;;
12958;SDS011;6544;51.666;6.634;2023-06-24T09:37:50;11.48;;;6.95;;
12958;SDS011;6544;51.666;6.634;2023-06-24T09:40:18;7.60;;;6.63;;
12958;SDS011;6544;51.666;6.634;2023-06-24T09:42:49;8.32;;;6.70;;
12958;SDS011;6544;51.666;6.634;2023-06-24T09:45:19;9.05;;;6.90;;
12958;SDS011;6544;51.666;6.634;2023-06-24T09:47:48;7.80;;;6.97;;
12958;SDS011;6544;51.666;6.634;2023-06-24T09:50:15;7.85;;;5.63;;
12958;SDS011;6544;51.666;6.634;2023-06-24T09:52:43;8.55;;;6.80;;
12958;SDS011;6544;51.666;6.634;2023-06-24T09:55:12;8.88;;;5.93;;
12958;SDS011;6544;51.666;6.634;2023-06-24T09:57:40;7.07;;;5.88;;
12958;SDS011;6544;51.666;6.634;2023-06-24T10:00:11;9.57;;;6.13;;
12958;SDS011;6544;51.666;6.634;2023-06-24T10:02:40;9.52;;;6.60;;
12958;SDS011;6544;51.666;6.634;2023-06-24T10:05:09;8.10;;;6.10;;
12958;SDS011;6544;51.666;6.634;2023-06-24T10:07:36;7.82;;;6.18;;
12958;SDS011;6544;51.666;6.634;2023-06-24T10:10:05;8.30;;;5.68;;
12958;SDS011;6544;51.666;6.634;2023-06-24T10:12:33;7.60;;;5.13;;
12958;SDS011;6544;51.666;6.634;2023-06-24T10:15:01;7.72;;;5.63;;
12958;SDS011;6544;51.666;6.634;2023-06-24T10:17:29;8.55;;;5.15;;
12958;SDS011;6544;51.666;6.634;2023-06-24T10:20:06;7.07;;;5.53;;
12958;SDS011;6544;51.666;6.634;2023-06-24T10:22:35;9.52;;;6.05;;
12958;SDS011;6544;51.666;6.634;2023-06-24T10:25:04;7.93;;;5.50;;
12958;SDS011;6544;51.666;6.634;2023-06-24T10:27:38;7.28;;;5.15;;
12958;SDS011;6544;51.666;6.634;2023-06-24T10:30:07;6.68;;;4.38;;
12958;SDS011;6544;51.666;6.634;2023-06-24T10:32:41;6.43;;;4.43;;
12958;SDS011;6544;51.666;6.634;2023-06-24T10:35:20;7.35;;;5.43;;
12958;SDS011;6544;51.666;6.634;2023-06-24T10:37:57;7.07;;;5.20;;
12958;SDS011;6544;51.666;6.634;2023-06-24T10:40:34;6.85;;;5.28;;
12958;SDS011;6544;51.666;6.634;2023-06-24T10:43:04;7.65;;;5.28;;
12958;SDS011;6544;51.666;6.634;2023-06-24T10:45:52;5.55;;;4.28;;
12958;SDS011;6544;51.666;6.634;2023-06-24T10:48:19;6.72;;;5.43;;
12958;SDS011;6544;51.666;6.634;2023-06-24T10:50:46;11.02;;;6.10;;
12958;SDS011;6544;51.666;6.634;2023-06-24T10:53:15;11.80;;;6.75;;
12958;SDS011;6544;51.666;6.634;2023-06-24T10:55:44;9.05;;;6.75;;
12958;SDS011;6544;51.666;6.634;2023-06-24T10:58:12;7.88;;;6.10;;
12958;SDS011;6544;51.666;6.634;2023-06-24T11:00:40;7.97;;;5.32;;
12958;SDS011;6544;51.666;6.634;2023-06-24T11:03:09;4.68;;;3.95;;
12958;SDS011;6544;51.666;6.634;2023-06-24T11:05:37;5.70;;;4.20;;
12958;SDS011;6544;51.666;6.634;2023-06-24T11:08:05;5.65;;;3.78;;
12958;SDS011;6544;51.666;6.634;2023-06-24T11:10:33;4.45;;;3.50;;
12958;SDS011;6544;51.666;6.634;2023-06-24T11:13:08;5.38;;;4.00;;
12958;SDS011;6544;51.666;6.634;2023-06-24T11:15:35;9.45;;;5.07;;
12958;SDS011;6544;51.666;6.634;2023-06-24T11:18:02;5.35;;;4.22;;
12958;SDS011;6544;51.666;6.634;2023-06-24T11:20:30;6.47;;;4.90;;
12958;SDS011;6544;51.666;6.634;2023-06-24T11:22:57;5.32;;;4.05;;
12958;SDS011;6544;51.666;6.634;2023-06-24T11:25:23;3.83;;;3.42;;
12958;SDS011;6544;51.666;6.634;2023-06-24T11:27:52;5.07;;;3.80;;
12958;SDS011;6544;51.666;6.634;2023-06-24T11:30:19;4.72;;;3.47;;
12958;SDS011;6544;51.666;6.634;2023-06-24T11:32:46;4.60;;;3.88;;
12958;SDS011;6544;51.666;6.634;2023-06-24T11:35:15;6.55;;;3.83;;
12958;SDS011;6544;51.666;6.634;2023-06-24T11:37:42;3.67;;;3.20;;
12958;SDS011;6544;51.666;6.634;2023-06-24T11:40:13;4.07;;;3.20;;
12958;SDS011;6544;51.666;6.634;2023-06-24T11:42:44;4.97;;;3.97;;
12958;SDS011;6544;51.666;6.634;2023-06-24T11:45:14;4.25;;;3.80;;
12958;SDS011;6544;51.666;6.634;2023-06-24T11:47:46;5.60;;;4.07;;
12958;SDS011;6544;51.666;6.634;2023-06-24T11:50:13;6.05;;;3.50;;
12958;SDS011;6544;51.666;6.634;2023-06-24T11:52:41;5.30;;;3.88;;
12958;SDS011;6544;51.666;6.634;2023-06-24T11:55:12;6.05;;;3.90;;
12958;SDS011;6544;51.666;6.634;2023-06-24T11:57:52;5.10;;;3.80;;
12958;SDS011;6544;51.666;6.634;2023-06-24T12:00:23;3.33;;;3.03;;
12958;SDS011;6544;51.666;6.634;2023-06-24T12:02:52;4.38;;;3.10;;
12958;SDS011;6544;51.666;6.634;2023-06-24T12:05:23;4.10;;;3.03;;
12958;SDS011;6544;51.666;6.634;2023-06-24T12:08:02;3.05;;;2.75;;
12958;SDS011;6544;51.666;6.634;2023-06-24T12:10:31;3.10;;;2.80;;
12958;SDS011;6544;51.666;6.634;2023-06-24T12:12:58;4.25;;;2.83;;
12958;SDS011;6544;51.666;6.634;2023-06-24T12:15:27;4.30;;;2.90;;
12958;SDS011;6544;51.666;6.634;2023-06-24T12:17:55;4.07;;;3.00;;
12958;SDS011;6544;51.666;6.634;2023-06-24T12:20:23;3.00;;;2.70;;
12958;SDS011;6544;51.666;6.634;2023-06-24T12:22:51;7.00;;;3.00;;
12958;SDS011;6544;51.666;6.634;2023-06-24T12:25:18;5.28;;;2.90;;
12958;SDS011;6544;51.666;6.634;2023-06-24T12:27:45;4.00;;;3.00;;
12958;SDS011;6544;51.666;6.634;2023-06-24T12:30:12;3.05;;;2.72;;
12958;SDS011;6544;51.666;6.634;2023-06-24T12:32:43;5.50;;;3.20;;
12958;SDS011;6544;51.666;6.634;2023-06-24T12:35:10;3.53;;;2.90;;
12958;SDS011;6544;51.666;6.634;2023-06-24T12:37:37;3.88;;;2.70;;
12958;SDS011;6544;51.666;6.634;2023-06-24T12:40:04;3.20;;;2.47;;
12958;SDS011;6544;51.666;6.634;2023-06-24T12:42:32;4.13;;;2.83;;
12958;SDS011;6544;51.666;6.634;2023-06-24T12:44:59;8.13;;;2.47;;
12958;SDS011;6544;51.666;6.634;2023-06-24T12:47:27;5.97;;;5.38;;
12958;SDS011;6544;51.666;6.634;2023-06-24T12:49:55;4.00;;;3.30;;
12958;SDS011;6544;51.666;6.634;2023-06-24T12:52:22;5.32;;;2.70;;
12958;SDS011;6544;51.666;6.634;2023-06-24T12:54:49;3.88;;;2.72;;
12958;SDS011;6544;51.666;6.634;2023-06-24T12:57:16;4.70;;;2.95;;
12958;SDS011;6544;51.666;6.634;2023-06-24T12:59:42;3.40;;;2.85;;
12958;SDS011;6544;51.666;6.634;2023-06-24T13:02:09;3.58;;;2.83;;
12958;SDS011;6544;51.666;6.634;2023-06-24T13:04:36;4.78;;;2.92;;
12958;SDS011;6544;51.666;6.634;2023-06-24T13:07:05;3.55;;;2.67;;
12958;SDS011;6544;51.666;6.634;2023-06-24T13:09:32;5.28;;;3.20;;
12958;SDS011;6544;51.666;6.634;2023-06-24T13:11:59;3.20;;;2.53;;
12958;SDS011;6544;51.666;6.634;2023-06-24T13:14:26;3.95;;;2.40;;
12958;SDS011;6544;51.666;6.634;2023-06-24T13:16:53;2.80;;;2.50;;
12958;SDS011;6544;51.666;6.634;2023-06-24T13:19:20;3.30;;;2.60;;
12958;SDS011;6544;51.666;6.634;2023-06-24T13:21:47;3.00;;;2.70;;
12958;SDS011;6544;51.666;6.634;2023-06-24T13:24:16;4.47;;;2.50;;
12958;SDS011;6544;51.666;6.634;2023-06-24T13:26:42;3.83;;;2.53;;
12958;SDS011;6544;51.666;6.634;2023-06-24T13:29:09;3.30;;;2.60;;
12958;SDS011;6544;51.666;6.634;2023-06-24T13:31:36;4.53;;;2.40;;
12958;SDS011;6544;51.666;6.634;2023-06-24T13:34:04;3.75;;;2.72;;
12958;SDS011;6544;51.666;6.634;2023-06-24T13:36:31;5.68;;;2.70;;
12958;SDS011;6544;51.666;6.634;2023-06-24T13:39:00;3.72;;;2.88;;
12958;SDS011;6544;51.666;6.634;2023-06-24T13:41:29;4.10;;;2.85;;
12958;SDS011;6544;51.666;6.634;2023-06-24T13:43:57;2.97;;;2.30;;
12958;SDS011;6544;51.666;6.634;2023-06-24T13:46:25;3.95;;;2.88;;
12958;SDS011;6544;51.666;6.634;2023-06-24T13:48:52;5.25;;;3.13;;
12958;SDS011;6544;51.666;6.634;2023-06-24T13:51:19;3.45;;;2.97;;
12958;SDS011;6544;51.666;6.634;2023-06-24T13:53:47;4.18;;;2.78;;
12958;SDS011;6544;51.666;6.634;2023-06-24T13:56:15;3.55;;;2.75;;
12958;SDS011;6544;51.666;6.634;2023-06-24T13:58:43;2.95;;;2.65;;
12958;SDS011;6544;51.666;6.634;2023-06-24T14:01:10;3.10;;;2.72;;
12958;SDS011;6544;51.666;6.634;2023-06-24T14:03:37;3.90;;;2.90;;
12958;SDS011;6544;51.666;6.634;2023-06-24T14:06:04;3.95;;;2.80;;
12958;SDS011;6544;51.666;6.634;2023-06-24T14:08:31;3.30;;;2.85;;
12958;SDS011;6544;51.666;6.634;2023-06-24T14:10:58;3.42;;;2.83;;
12958;SDS011;6544;51.666;6.634;2023-06-24T14:13:26;3.65;;;2.67;;
12958;SDS011;6544;51.666;6.634;2023-06-24T14:15:55;3.97;;;2.80;;
12958;SDS011;6544;51.666;6.634;2023-06-24T14:18:22;3.15;;;2.70;;
12958;SDS011;6544;51.666;6.634;2023-06-24T14:20:50;4.47;;;2.45;;
12958;SDS011;6544;51.666;6.634;2023-06-24T14:23:17;7.15;;;2.92;;
12958;SDS011;6544;51.666;6.634;2023-06-24T14:25:44;3.15;;;2.85;;
12958;SDS011;6544;51.666;6.634;2023-06-24T14:28:11;3.33;;;2.95;;
12958;SDS011;6544;51.666;6.634;2023-06-24T14:30:38;4.22;;;2.90;;
12958;SDS011;6544;51.666;6.634;2023-06-24T14:33:07;3.78;;;2.90;;
12958;SDS011;6544;51.666;6.634;2023-06-24T14:35:35;4.30;;;2.85;;
12958;SDS011;6544;51.666;6.634;2023-06-24T14:38:02;5.50;;;3.03;;
12958;SDS011;6544;51.666;6.634;2023-06-24T14:40:28;3.95;;;3.00;;
12958;SDS011;6544;51.666;6.634;2023-06-24T14:42:55;5.57;;;3.15;;
12958;SDS011;6544;51.666;6.634;2023-06-24T14:45:22;4.85;;;2.95;;
12958;SDS011;6544;51.666;6.634;2023-06-24T14:47:49;13.45;;;3.17;;
12958;SDS011;6544;51.666;6.634;2023-06-24T14:50:18;3.53;;;2.63;;
12958;SDS011;6544;51.666;6.634;2023-06-24T14:52:45;3.25;;;2.70;;
12958;SDS011;6544;51.666;6.634;2023-06-24T14:55:12;4.30;;;3.05;;
12958;SDS011;6544;51.666;6.634;2023-06-24T14:57:39;3.80;;;2.72;;
12958;SDS011;6544;51.666;6.634;2023-06-24T15:00:06;5.03;;;2.67;;
12958;SDS011;6544;51.666;6.634;2023-06-24T15:02:34;3.60;;;3.13;;